sensor_id;sensor_type;location;lat;lon;timestamp;P1;P2;P0
75960;PMS7003;64644;48.914;2.254;2024-03-25T00:01:49;6.00;6.00;4.00
75960;PMS7003;64644;48.914;2.254;2024-03-25T00:04:14;9.75;6.00;4.75
75960;PMS7003;64644;48.914;2.254;2024-03-25T00:06:39;7.75;6.00;5.00
75960;PMS7003;64644;48.914;2.254;2024-03-25T00:09:05;7.50;7.50;4.00
75960;PMS7003;64644;48.914;2.254;2024-03-25T00:11:32;5.00;4.50;4.00
75960;PMS7003;64644;48.914;2.254;2024-03-25T00:13:58;10.00;9.25;7.50
75960;PMS7003;64644;48.914;2.254;2024-03-25T00:16:23;8.25;7.00;6.00
75960;PMS7003;64644;48.914;2.254;2024-03-25T00:18:48;18.50;12.00;8.50
75960;PMS7003;64644;48.914;2.254;2024-03-25T00:21:14;14.50;12.50;10.25
75960;PMS7003;64644;48.914;2.254;2024-03-25T00:23:39;11.25;9.25;5.50
75960;PMS7003;64644;48.914;2.254;2024-03-25T00:26:04;9.25;9.25;8.50
75960;PMS7003;64644;48.914;2.254;2024-03-25T00:28:30;12.75;11.75;6.00
75960;PMS7003;64644;48.914;2.254;2024-03-25T00:30:55;14.25;9.25;6.25
75960;PMS7003;64644;48.914;2.254;2024-03-25T00:33:20;12.25;11.25;8.00
75960;PMS7003;64644;48.914;2.254;2024-03-25T00:35:47;13.25;11.25;10.00
75960;PMS7003;64644;48.914;2.254;2024-03-25T00:38:12;12.50;11.75;6.50
75960;PMS7003;64644;48.914;2.254;2024-03-25T00:40:38;11.00;11.00;8.00
75960;PMS7003;64644;48.914;2.254;2024-03-25T00:43:03;9.00;9.00;6.75
75960;PMS7003;64644;48.914;2.254;2024-03-25T00:45:28;13.25;12.00;8.00
75960;PMS7003;64644;48.914;2.254;2024-03-25T00:47:56;15.00;11.50;8.75
75960;PMS7003;64644;48.914;2.254;2024-03-25T00:50:22;7.25;7.25;5.75
75960;PMS7003;64644;48.914;2.254;2024-03-25T00:52:47;12.00;12.00;8.00
75960;PMS7003;64644;48.914;2.254;2024-03-25T00:55:12;12.75;11.00;8.00
75960;PMS7003;64644;48.914;2.254;2024-03-25T00:57:39;13.50;10.00;8.00
75960;PMS7003;64644;48.914;2.254;2024-03-25T01:00:05;17.50;12.50;7.50
75960;PMS7003;64644;48.914;2.254;2024-03-25T01:02:30;11.50;9.50;8.00
75960;PMS7003;64644;48.914;2.254;2024-03-25T01:04:56;10.00;8.25;7.75
75960;PMS7003;64644;48.914;2.254;2024-03-25T01:07:22;11.00;5.00;4.00
75960;PMS7003;64644;48.914;2.254;2024-03-25T01:09:47;8.50;5.50;4.00
75960;PMS7003;64644;48.914;2.254;2024-03-25T01:12:13;12.00;9.00;5.25
75960;PMS7003;64644;48.914;2.254;2024-03-25T01:14:38;7.00;7.00;5.00
75960;PMS7003;64644;48.914;2.254;2024-03-25T01:17:03;9.25;8.00;6.25
75960;PMS7003;64644;48.914;2.254;2024-03-25T01:19:29;11.50;8.00;6.25
75960;PMS7003;64644;48.914;2.254;2024-03-25T01:21:54;10.25;7.50;6.00
75960;PMS7003;64644;48.914;2.254;2024-03-25T01:24:19;5.25;5.25;5.00
75960;PMS7003;64644;48.914;2.254;2024-03-25T01:26:45;8.25;8.25;5.00
75960;PMS7003;64644;48.914;2.254;2024-03-25T01:29:11;11.50;8.25;6.00
75960;PMS7003;64644;48.914;2.254;2024-03-25T01:31:37;8.50;7.50;5.00
75960;PMS7003;64644;48.914;2.254;2024-03-25T01:34:03;9.25;7.00;4.00
75960;PMS7003;64644;48.914;2.254;2024-03-25T01:36:28;7.50;7.50;4.75
75960;PMS7003;64644;48.914;2.254;2024-03-25T01:38:53;5.00;5.00;4.00
75960;PMS7003;64644;48.914;2.254;2024-03-25T01:41:22;7.00;5.00;2.00
75960;PMS7003;64644;48.914;2.254;2024-03-25T01:43:48;5.25;4.50;2.00
75960;PMS7003;64644;48.914;2.254;2024-03-25T01:46:14;3.50;3.50;1.00
75960;PMS7003;64644;48.914;2.254;2024-03-25T01:48:41;3.00;3.00;2.00
75960;PMS7003;64644;48.914;2.254;2024-03-25T01:51:07;7.50;6.25;3.00
75960;PMS7003;64644;48.914;2.254;2024-03-25T01:53:32;6.75;4.50;4.00
75960;PMS7003;64644;48.914;2.254;2024-03-25T01:55:59;6.50;4.00;4.00
75960;PMS7003;64644;48.914;2.254;2024-03-25T01:58:25;6.75;4.50;3.00
75960;PMS7003;64644;48.914;2.254;2024-03-25T02:00:51;10.00;7.25;5.50
75960;PMS7003;64644;48.914;2.254;2024-03-25T02:03:17;8.50;4.75;4.25
75960;PMS7003;64644;48.914;2.254;2024-03-25T02:05:43;8.50;7.75;4.00
75960;PMS7003;64644;48.914;2.254;2024-03-25T02:08:09;6.25;4.75;2.00
75960;PMS7003;64644;48.914;2.254;2024-03-25T02:10:34;8.75;7.50;4.00
75960;PMS7003;64644;48.914;2.254;2024-03-25T02:13:02;9.00;5.75;4.00
75960;PMS7003;64644;48.914;2.254;2024-03-25T02:15:28;7.50;6.25;5.00
75960;PMS7003;64644;48.914;2.254;2024-03-25T02:17:54;8.50;5.00;4.00
75960;PMS7003;64644;48.914;2.254;2024-03-25T02:20:19;3.75;2.50;2.00
75960;PMS7003;64644;48.914;2.254;2024-03-25T02:22:45;6.75;5.00;2.00
75960;PMS7003;64644;48.914;2.254;2024-03-25T02:25:10;6.50;5.00;4.00
75960;PMS7003;64644;48.914;2.254;2024-03-25T02:27:36;7.00;5.00;3.00
75960;PMS7003;64644;48.914;2.254;2024-03-25T02:30:05;9.75;3.75;2.50
75960;PMS7003;64644;48.914;2.254;2024-03-25T02:32:32;5.50;5.50;4.00
75960;PMS7003;64644;48.914;2.254;2024-03-25T02:34:58;5.50;5.50;4.25
75960;PMS7003;64644;48.914;2.254;2024-03-25T02:37:24;8.25;5.75;4.00
75960;PMS7003;64644;48.914;2.254;2024-03-25T02:39:51;3.50;2.00;0.25
75960;PMS7003;64644;48.914;2.254;2024-03-25T02:42:18;6.25;5.50;3.00
75960;PMS7003;64644;48.914;2.254;2024-03-25T02:44:43;2.50;2.50;2.50
75960;PMS7003;64644;48.914;2.254;2024-03-25T02:47:09;4.50;4.50;2.00
75960;PMS7003;64644;48.914;2.254;2024-03-25T02:49:36;7.75;7.50;4.00
75960;PMS7003;64644;48.914;2.254;2024-03-25T02:52:02;7.25;7.00;4.00
75960;PMS7003;64644;48.914;2.254;2024-03-25T02:54:27;5.25;5.25;5.00
75960;PMS7003;64644;48.914;2.254;2024-03-25T02:56:52;5.25;5.25;4.25
75960;PMS7003;64644;48.914;2.254;2024-03-25T02:59:18;9.75;7.00;4.00
75960;PMS7003;64644;48.914;2.254;2024-03-25T03:01:43;6.50;6.50;4.25
75960;PMS7003;64644;48.914;2.254;2024-03-25T03:04:08;6.50;4.50;2.50
75960;PMS7003;64644;48.914;2.254;2024-03-25T03:06:34;7.00;5.00;4.00
75960;PMS7003;64644;48.914;2.254;2024-03-25T03:08:59;6.25;6.25;4.00
75960;PMS7003;64644;48.914;2.254;2024-03-25T03:11:24;7.25;7.00;4.00
75960;PMS7003;64644;48.914;2.254;2024-03-25T03:13:50;4.00;4.00;4.00
75960;PMS7003;64644;48.914;2.254;2024-03-25T03:16:15;5.50;5.25;3.50
75960;PMS7003;64644;48.914;2.254;2024-03-25T03:18:40;8.50;8.00;4.00
75960;PMS7003;64644;48.914;2.254;2024-03-25T03:21:05;6.25;4.75;3.00
75960;PMS7003;64644;48.914;2.254;2024-03-25T03:23:31;10.00;4.50;2.00
75960;PMS7003;64644;48.914;2.254;2024-03-25T03:25:56;10.00;6.75;4.50
75960;PMS7003;64644;48.914;2.254;2024-03-25T03:28:24;5.25;5.25;2.00
75960;PMS7003;64644;48.914;2.254;2024-03-25T03:30:50;4.25;4.25;4.00
75960;PMS7003;64644;48.914;2.254;2024-03-25T03:33:15;7.00;6.00;4.25
75960;PMS7003;64644;48.914;2.254;2024-03-25T03:35:41;7.25;7.25;5.00
75960;PMS7003;64644;48.914;2.254;2024-03-25T03:38:07;9.00;9.00;4.75
75960;PMS7003;64644;48.914;2.254;2024-03-25T03:40:33;10.75;8.00;5.00
75960;PMS7003;64644;48.914;2.254;2024-03-25T03:42:58;4.75;4.75;2.00
75960;PMS7003;64644;48.914;2.254;2024-03-25T03:45:24;6.50;5.25;4.00
75960;PMS7003;64644;48.914;2.254;2024-03-25T03:47:50;4.00;4.00;3.00
75960;PMS7003;64644;48.914;2.254;2024-03-25T03:50:15;1.75;1.75;1.50
75960;PMS7003;64644;48.914;2.254;2024-03-25T03:52:41;4.50;4.50;4.00
75960;PMS7003;64644;48.914;2.254;2024-03-25T03:55:06;8.25;6.50;2.00
75960;PMS7003;64644;48.914;2.254;2024-03-25T03:57:32;4.75;4.00;1.00
75960;PMS7003;64644;48.914;2.254;2024-03-25T03:59:57;7.00;4.25;2.50
75960;PMS7003;64644;48.914;2.254;2024-03-25T04:02:23;4.75;4.75;3.00
75960;PMS7003;64644;48.914;2.254;2024-03-25T04:04:50;7.00;6.00;4.00
75960;PMS7003;64644;48.914;2.254;2024-03-25T04:07:16;7.75;4.75;4.00
75960;PMS7003;64644;48.914;2.254;2024-03-25T04:09:41;9.00;6.50;4.75
75960;PMS7003;64644;48.914;2.254;2024-03-25T04:12:06;6.50;4.00;3.00
75960;PMS7003;64644;48.914;2.254;2024-03-25T04:14:32;7.00;7.00;4.50
75960;PMS7003;64644;48.914;2.254;2024-03-25T04:16:58;2.50;2.50;2.00
75960;PMS7003;64644;48.914;2.254;2024-03-25T04:19:24;6.50;5.00;4.00
75960;PMS7003;64644;48.914;2.254;2024-03-25T04:21:49;7.00;7.00;5.00
75960;PMS7003;64644;48.914;2.254;2024-03-25T04:24:15;9.25;9.25;7.00
75960;PMS7003;64644;48.914;2.254;2024-03-25T04:26:40;13.00;8.50;5.75
75960;PMS7003;64644;48.914;2.254;2024-03-25T04:29:05;13.25;9.00;6.25
75960;PMS7003;64644;48.914;2.254;2024-03-25T04:31:31;10.00;10.00;8.50
75960;PMS7003;64644;48.914;2.254;2024-03-25T04:33:56;14.25;12.25;8.25
75960;PMS7003;64644;48.914;2.254;2024-03-25T04:36:21;15.50;14.25;9.50
75960;PMS7003;64644;48.914;2.254;2024-03-25T04:38:47;18.50;14.25;11.00
75960;PMS7003;64644;48.914;2.254;2024-03-25T04:41:12;22.00;18.25;12.00
75960;PMS7003;64644;48.914;2.254;2024-03-25T04:43:37;17.00;16.00;12.00
75960;PMS7003;64644;48.914;2.254;2024-03-25T04:46:03;18.67;16.00;12.67
75960;PMS7003;64644;48.914;2.254;2024-03-25T04:48:28;22.75;20.50;15.50
75960;PMS7003;64644;48.914;2.254;2024-03-25T04:50:54;26.25;20.50;15.75
75960;PMS7003;64644;48.914;2.254;2024-03-25T04:53:20;24.25;23.50;16.25
75960;PMS7003;64644;48.914;2.254;2024-03-25T04:55:45;25.50;21.00;16.00
75960;PMS7003;64644;48.914;2.254;2024-03-25T04:58:11;27.25;24.00;19.00
75960;PMS7003;64644;48.914;2.254;2024-03-25T05:00:36;24.25;23.25;16.50
75960;PMS7003;64644;48.914;2.254;2024-03-25T05:03:01;25.00;23.75;18.25
75960;PMS7003;64644;48.914;2.254;2024-03-25T05:05:27;26.50;24.00;17.75
75960;PMS7003;64644;48.914;2.254;2024-03-25T05:07:52;27.50;23.25;17.75
75960;PMS7003;64644;48.914;2.254;2024-03-25T05:10:17;28.25;25.75;17.00
75960;PMS7003;64644;48.914;2.254;2024-03-25T05:12:43;25.00;25.00;18.33
75960;PMS7003;64644;48.914;2.254;2024-03-25T05:15:09;33.75;29.25;21.50
75960;PMS7003;64644;48.914;2.254;2024-03-25T05:17:34;26.25;22.75;16.00
75960;PMS7003;64644;48.914;2.254;2024-03-25T05:19:59;24.00;22.67;15.33
75960;PMS7003;64644;48.914;2.254;2024-03-25T05:22:25;23.33;23.33;14.00
75960;PMS7003;64644;48.914;2.254;2024-03-25T05:24:50;23.25;22.25;17.75
75960;PMS7003;64644;48.914;2.254;2024-03-25T05:27:15;24.00;21.00;17.00
75960;PMS7003;64644;48.914;2.254;2024-03-25T05:29:41;29.67;22.00;14.67
75960;PMS7003;64644;48.914;2.254;2024-03-25T05:32:06;28.00;25.00;18.33
75960;PMS7003;64644;48.914;2.254;2024-03-25T05:34:31;22.50;22.00;16.75
75960;PMS7003;64644;48.914;2.254;2024-03-25T05:36:57;21.33;18.67;14.67
75960;PMS7003;64644;48.914;2.254;2024-03-25T05:39:22;14.75;11.75;7.75
75960;PMS7003;64644;48.914;2.254;2024-03-25T05:41:48;15.00;11.50;8.50
75960;PMS7003;64644;48.914;2.254;2024-03-25T05:44:13;14.50;14.25;8.50
75960;PMS7003;64644;48.914;2.254;2024-03-25T05:46:39;10.75;10.75;8.00
75960;PMS7003;64644;48.914;2.254;2024-03-25T05:49:05;11.50;11.50;8.00
75960;PMS7003;64644;48.914;2.254;2024-03-25T05:51:31;7.50;5.00;3.50
75960;PMS7003;64644;48.914;2.254;2024-03-25T05:53:58;5.75;3.75;0.25
75960;PMS7003;64644;48.914;2.254;2024-03-25T05:56:23;8.75;7.00;6.00
75960;PMS7003;64644;48.914;2.254;2024-03-25T05:58:55;8.75;8.75;7.00
75960;PMS7003;64644;48.914;2.254;2024-03-25T06:01:21;8.75;7.00;5.00
75960;PMS7003;64644;48.914;2.254;2024-03-25T06:03:46;8.00;8.00;6.50
75960;PMS7003;64644;48.914;2.254;2024-03-25T06:06:11;8.00;5.67;4.00
75960;PMS7003;64644;48.914;2.254;2024-03-25T06:08:36;11.00;8.67;7.00
75960;PMS7003;64644;48.914;2.254;2024-03-25T06:11:02;8.67;8.67;7.00
75960;PMS7003;64644;48.914;2.254;2024-03-25T06:13:27;5.00;5.00;4.00
75960;PMS7003;64644;48.914;2.254;2024-03-25T06:15:53;9.00;9.00;6.75
75960;PMS7003;64644;48.914;2.254;2024-03-25T06:18:18;9.50;9.50;5.00
75960;PMS7003;64644;48.914;2.254;2024-03-25T06:20:44;7.00;6.00;5.00
75960;PMS7003;64644;48.914;2.254;2024-03-25T06:23:09;8.33;8.33;7.00
75960;PMS7003;64644;48.914;2.254;2024-03-25T06:25:34;8.00;5.67;5.00
75960;PMS7003;64644;48.914;2.254;2024-03-25T06:28:02;10.50;9.00;6.50
75960;PMS7003;64644;48.914;2.254;2024-03-25T06:30:27;12.50;11.00;8.00
75960;PMS7003;64644;48.914;2.254;2024-03-25T06:33:11;9.50;8.00;4.75
75960;PMS7003;64644;48.914;2.254;2024-03-25T06:35:55;9.25;9.25;6.75
75960;PMS7003;64644;48.914;2.254;2024-03-25T06:38:20;8.33;5.67;4.67
75960;PMS7003;64644;48.914;2.254;2024-03-25T06:40:46;10.25;7.25;4.75
75960;PMS7003;64644;48.914;2.254;2024-03-25T06:43:11;9.00;9.00;6.25
75960;PMS7003;64644;48.914;2.254;2024-03-25T06:45:36;7.75;7.75;5.00
75960;PMS7003;64644;48.914;2.254;2024-03-25T06:48:02;12.25;11.75;6.50
75960;PMS7003;64644;48.914;2.254;2024-03-25T06:50:27;8.25;6.25;5.00
75960;PMS7003;64644;48.914;2.254;2024-03-25T06:52:53;11.75;10.00;4.75
75960;PMS7003;64644;48.914;2.254;2024-03-25T06:55:18;7.25;6.25;4.00
75960;PMS7003;64644;48.914;2.254;2024-03-25T06:57:47;8.25;8.25;6.25
75960;PMS7003;64644;48.914;2.254;2024-03-25T07:00:13;6.00;5.75;4.00
75960;PMS7003;64644;48.914;2.254;2024-03-25T07:02:39;8.75;8.75;5.50
75960;PMS7003;64644;48.914;2.254;2024-03-25T07:05:05;9.25;9.00;6.00
75960;PMS7003;64644;48.914;2.254;2024-03-25T07:07:31;11.25;8.00;6.25
75960;PMS7003;64644;48.914;2.254;2024-03-25T07:09:56;6.50;6.50;4.00
75960;PMS7003;64644;48.914;2.254;2024-03-25T07:12:21;7.00;6.25;5.75
75960;PMS7003;64644;48.914;2.254;2024-03-25T07:14:47;11.00;8.00;5.00
75960;PMS7003;64644;48.914;2.254;2024-03-25T07:17:12;5.25;5.25;5.00
75960;PMS7003;64644;48.914;2.254;2024-03-25T07:19:37;11.00;6.67;5.00
75960;PMS7003;64644;48.914;2.254;2024-03-25T07:22:03;9.00;8.00;4.00
75960;PMS7003;64644;48.914;2.254;2024-03-25T07:24:28;9.50;6.00;5.00
75960;PMS7003;64644;48.914;2.254;2024-03-25T07:26:54;7.33;7.33;6.00
75960;PMS7003;64644;48.914;2.254;2024-03-25T07:29:19;8.00;8.00;5.00
75960;PMS7003;64644;48.914;2.254;2024-03-25T07:31:44;5.67;5.67;4.67
75960;PMS7003;64644;48.914;2.254;2024-03-25T07:34:10;7.25;5.75;4.50
75960;PMS7003;64644;48.914;2.254;2024-03-25T07:36:36;8.75;7.50;5.00
75960;PMS7003;64644;48.914;2.254;2024-03-25T07:39:02;6.50;5.25;2.00
75960;PMS7003;64644;48.914;2.254;2024-03-25T07:41:30;10.50;5.75;4.00
75960;PMS7003;64644;48.914;2.254;2024-03-25T07:43:55;9.50;8.00;5.00
75960;PMS7003;64644;48.914;2.254;2024-03-25T07:46:21;10.67;7.33;5.00
75960;PMS7003;64644;48.914;2.254;2024-03-25T07:48:46;7.50;6.00;4.00
75960;PMS7003;64644;48.914;2.254;2024-03-25T07:51:11;8.67;8.33;5.67
75960;PMS7003;64644;48.914;2.254;2024-03-25T07:53:37;5.00;4.67;2.67
75960;PMS7003;64644;48.914;2.254;2024-03-25T07:56:02;8.00;5.67;5.00
75960;PMS7003;64644;48.914;2.254;2024-03-25T07:58:29;6.00;5.50;4.25
75960;PMS7003;64644;48.914;2.254;2024-03-25T08:00:55;9.75;6.50;4.50
75960;PMS7003;64644;48.914;2.254;2024-03-25T08:03:20;6.00;5.00;2.67
75960;PMS7003;64644;48.914;2.254;2024-03-25T08:05:45;5.00;5.00;3.50
75960;PMS7003;64644;48.914;2.254;2024-03-25T08:08:11;9.67;5.67;4.00
75960;PMS7003;64644;48.914;2.254;2024-03-25T08:10:36;6.67;6.00;5.00
75960;PMS7003;64644;48.914;2.254;2024-03-25T08:13:02;6.00;5.75;4.75
75960;PMS7003;64644;48.914;2.254;2024-03-25T08:15:28;5.75;5.00;4.75
75960;PMS7003;64644;48.914;2.254;2024-03-25T08:17:53;4.50;4.50;3.00
75960;PMS7003;64644;48.914;2.254;2024-03-25T08:20:19;8.00;6.00;4.00
75960;PMS7003;64644;48.914;2.254;2024-03-25T08:22:44;5.00;5.00;4.33
75960;PMS7003;64644;48.914;2.254;2024-03-25T08:25:10;4.00;4.00;4.00
75960;PMS7003;64644;48.914;2.254;2024-03-25T08:27:37;6.50;5.50;4.00
75960;PMS7003;64644;48.914;2.254;2024-03-25T08:30:02;6.00;4.00;2.00
75960;PMS7003;64644;48.914;2.254;2024-03-25T08:32:28;6.00;4.75;3.00
75960;PMS7003;64644;48.914;2.254;2024-03-25T08:34:54;5.25;5.25;2.50
75960;PMS7003;64644;48.914;2.254;2024-03-25T08:37:19;6.00;6.00;5.00
75960;PMS7003;64644;48.914;2.254;2024-03-25T08:39:44;11.00;8.75;6.75
75960;PMS7003;64644;48.914;2.254;2024-03-25T08:42:10;8.00;6.00;5.00
75960;PMS7003;64644;48.914;2.254;2024-03-25T08:44:35;6.00;6.00;4.00
75960;PMS7003;64644;48.914;2.254;2024-03-25T08:47:00;8.25;5.50;4.25
75960;PMS7003;64644;48.914;2.254;2024-03-25T08:49:25;8.00;8.00;5.50
75960;PMS7003;64644;48.914;2.254;2024-03-25T08:51:51;7.75;6.25;4.00
75960;PMS7003;64644;48.914;2.254;2024-03-25T08:54:16;6.00;6.00;3.50
75960;PMS7003;64644;48.914;2.254;2024-03-25T08:56:42;8.00;6.00;5.00
75960;PMS7003;64644;48.914;2.254;2024-03-25T08:59:07;5.67;5.00;4.67
75960;PMS7003;64644;48.914;2.254;2024-03-25T09:01:34;8.25;8.25;5.00
75960;PMS7003;64644;48.914;2.254;2024-03-25T09:03:59;9.00;7.25;5.00
75960;PMS7003;64644;48.914;2.254;2024-03-25T09:06:25;9.33;6.00;3.33
75960;PMS7003;64644;48.914;2.254;2024-03-25T09:08:50;7.25;6.00;3.25
75960;PMS7003;64644;48.914;2.254;2024-03-25T09:11:34;6.00;6.00;4.75
75960;PMS7003;64644;48.914;2.254;2024-03-25T09:14:00;5.50;5.00;3.50
75960;PMS7003;64644;48.914;2.254;2024-03-25T09:16:27;5.75;5.75;4.50
75960;PMS7003;64644;48.914;2.254;2024-03-25T09:18:53;6.25;5.50;4.50
75960;PMS7003;64644;48.914;2.254;2024-03-25T09:21:18;6.00;6.00;5.00
75960;PMS7003;64644;48.914;2.254;2024-03-25T09:23:44;6.50;6.25;3.50
75960;PMS7003;64644;48.914;2.254;2024-03-25T09:26:09;6.75;5.75;4.00
75960;PMS7003;64644;48.914;2.254;2024-03-25T09:28:35;6.00;6.00;4.50
75960;PMS7003;64644;48.914;2.254;2024-03-25T09:31:01;9.00;9.00;5.25
75960;PMS7003;64644;48.914;2.254;2024-03-25T09:33:26;5.00;5.00;2.25
75960;PMS7003;64644;48.914;2.254;2024-03-25T09:35:51;5.00;5.00;3.00
75960;PMS7003;64644;48.914;2.254;2024-03-25T09:38:17;9.00;6.33;3.00
75960;PMS7003;64644;48.914;2.254;2024-03-25T09:40:42;8.50;5.75;3.50
75960;PMS7003;64644;48.914;2.254;2024-03-25T09:43:20;4.00;4.00;2.00
75960;PMS7003;64644;48.914;2.254;2024-03-25T09:45:50;6.25;5.25;3.50
75960;PMS7003;64644;48.914;2.254;2024-03-25T09:48:17;3.00;3.00;2.00
75960;PMS7003;64644;48.914;2.254;2024-03-25T09:50:44;5.75;5.75;3.00
75960;PMS7003;64644;48.914;2.254;2024-03-25T09:53:10;3.00;3.00;2.00
75960;PMS7003;64644;48.914;2.254;2024-03-25T09:55:35;4.50;4.50;3.00
75960;PMS7003;64644;48.914;2.254;2024-03-25T09:58:02;6.25;6.00;5.00
75960;PMS7003;64644;48.914;2.254;2024-03-25T10:00:28;4.00;4.00;2.75
75960;PMS7003;64644;48.914;2.254;2024-03-25T10:02:55;5.00;5.00;3.00
75960;PMS7003;64644;48.914;2.254;2024-03-25T10:05:20;6.25;5.25;2.00
75960;PMS7003;64644;48.914;2.254;2024-03-25T10:07:46;5.25;3.50;2.00
75960;PMS7003;64644;48.914;2.254;2024-03-25T10:10:11;2.75;2.00;1.75
75960;PMS7003;64644;48.914;2.254;2024-03-25T10:12:36;5.00;5.00;2.00
75960;PMS7003;64644;48.914;2.254;2024-03-25T10:15:02;6.50;5.50;3.00
75960;PMS7003;64644;48.914;2.254;2024-03-25T10:17:30;6.00;3.00;2.50
75960;PMS7003;64644;48.914;2.254;2024-03-25T10:19:56;4.50;4.50;3.00
75960;PMS7003;64644;48.914;2.254;2024-03-25T10:22:21;5.25;5.25;1.75
75960;PMS7003;64644;48.914;2.254;2024-03-25T10:24:47;6.25;5.25;3.50
75960;PMS7003;64644;48.914;2.254;2024-03-25T10:27:19;7.75;7.00;4.50
75960;PMS7003;64644;48.914;2.254;2024-03-25T10:29:52;7.00;6.00;3.00
75960;PMS7003;64644;48.914;2.254;2024-03-25T10:32:22;3.00;3.00;2.25
75960;PMS7003;64644;48.914;2.254;2024-03-25T10:34:49;2.00;2.00;2.00
75960;PMS7003;64644;48.914;2.254;2024-03-25T10:37:15;4.50;4.00;2.75
75960;PMS7003;64644;48.914;2.254;2024-03-25T10:39:49;5.50;5.00;3.00
75960;PMS7003;64644;48.914;2.254;2024-03-25T10:42:18;3.00;3.00;3.00
75960;PMS7003;64644;48.914;2.254;2024-03-25T10:44:44;6.00;2.00;2.00
75960;PMS7003;64644;48.914;2.254;2024-03-25T10:47:11;3.00;3.00;2.00
75960;PMS7003;64644;48.914;2.254;2024-03-25T10:49:51;4.50;3.50;2.00
75960;PMS7003;64644;48.914;2.254;2024-03-25T10:52:22;5.00;2.50;2.00
75960;PMS7003;64644;48.914;2.254;2024-03-25T10:54:49;4.00;4.00;2.50
75960;PMS7003;64644;48.914;2.254;2024-03-25T10:57:15;5.75;5.00;2.25
75960;PMS7003;64644;48.914;2.254;2024-03-25T10:59:42;5.25;3.50;2.00
75960;PMS7003;64644;48.914;2.254;2024-03-25T11:02:08;3.25;3.25;2.50
75960;PMS7003;64644;48.914;2.254;2024-03-25T11:04:37;2.75;2.00;2.00
75960;PMS7003;64644;48.914;2.254;2024-03-25T11:07:08;3.00;2.75;1.75
75960;PMS7003;64644;48.914;2.254;2024-03-25T11:09:33;2.00;2.00;2.00
75960;PMS7003;64644;48.914;2.254;2024-03-25T11:11:59;2.00;2.00;1.50
75960;PMS7003;64644;48.914;2.254;2024-03-25T11:14:25;3.00;3.00;2.00
75960;PMS7003;64644;48.914;2.254;2024-03-25T11:16:51;3.00;3.00;2.50
75960;PMS7003;64644;48.914;2.254;2024-03-25T11:19:17;6.00;5.25;2.50
75960;PMS7003;64644;48.914;2.254;2024-03-25T11:21:43;3.00;2.00;1.25
75960;PMS7003;64644;48.914;2.254;2024-03-25T11:24:09;1.00;1.00;1.00
75960;PMS7003;64644;48.914;2.254;2024-03-25T11:26:34;3.00;2.00;1.50
75960;PMS7003;64644;48.914;2.254;2024-03-25T11:29:05;1.50;1.50;0.00
75960;PMS7003;64644;48.914;2.254;2024-03-25T11:31:30;3.00;2.00;1.00
75960;PMS7003;64644;48.914;2.254;2024-03-25T11:34:03;3.00;2.25;1.25
75960;PMS7003;64644;48.914;2.254;2024-03-25T11:36:29;1.00;1.00;1.00
75960;PMS7003;64644;48.914;2.254;2024-03-25T11:39:05;3.75;2.25;1.25
75960;PMS7003;64644;48.914;2.254;2024-03-25T11:41:34;5.00;2.00;1.75
75960;PMS7003;64644;48.914;2.254;2024-03-25T11:44:04;3.25;2.00;1.00
75960;PMS7003;64644;48.914;2.254;2024-03-25T11:46:29;3.00;2.00;1.00
75960;PMS7003;64644;48.914;2.254;2024-03-25T11:48:55;2.75;2.00;1.00
75960;PMS7003;64644;48.914;2.254;2024-03-25T11:51:21;3.00;3.00;1.00
75960;PMS7003;64644;48.914;2.254;2024-03-25T11:53:46;2.00;2.00;1.00
75960;PMS7003;64644;48.914;2.254;2024-03-25T11:56:11;3.50;2.00;1.00
75960;PMS7003;64644;48.914;2.254;2024-03-25T11:58:38;0.00;0.00;0.00
75960;PMS7003;64644;48.914;2.254;2024-03-25T12:01:04;2.25;2.25;1.75
75960;PMS7003;64644;48.914;2.254;2024-03-25T12:03:29;3.25;2.50;1.00
75960;PMS7003;64644;48.914;2.254;2024-03-25T12:05:55;2.25;2.25;2.00
75960;PMS7003;64644;48.914;2.254;2024-03-25T12:08:21;7.75;2.00;1.00
75960;PMS7003;64644;48.914;2.254;2024-03-25T12:10:50;3.00;1.25;0.25
75960;PMS7003;64644;48.914;2.254;2024-03-25T12:13:34;1.75;1.00;1.00
75960;PMS7003;64644;48.914;2.254;2024-03-25T12:16:00;2.75;1.00;1.00
75960;PMS7003;64644;48.914;2.254;2024-03-25T12:18:25;3.00;3.00;1.75
75960;PMS7003;64644;48.914;2.254;2024-03-25T12:20:51;2.75;2.75;1.00
75960;PMS7003;64644;48.914;2.254;2024-03-25T12:23:17;3.00;2.00;1.00
75960;PMS7003;64644;48.914;2.254;2024-03-25T12:25:48;3.75;2.00;2.00
75960;PMS7003;64644;48.914;2.254;2024-03-25T12:28:14;2.00;2.00;1.25
75960;PMS7003;64644;48.914;2.254;2024-03-25T12:30:53;6.50;1.00;1.00
75960;PMS7003;64644;48.914;2.254;2024-03-25T12:33:22;2.25;2.25;2.00
75960;PMS7003;64644;48.914;2.254;2024-03-25T12:35:49;6.00;2.25;1.00
75960;PMS7003;64644;48.914;2.254;2024-03-25T12:38:24;3.50;3.50;2.00
75960;PMS7003;64644;48.914;2.254;2024-03-25T12:40:53;3.00;3.00;2.00
75960;PMS7003;64644;48.914;2.254;2024-03-25T12:43:28;1.00;1.00;1.00
75960;PMS7003;64644;48.914;2.254;2024-03-25T12:45:56;4.75;3.25;2.00
75960;PMS7003;64644;48.914;2.254;2024-03-25T12:48:22;4.25;2.75;2.00
75960;PMS7003;64644;48.914;2.254;2024-03-25T12:50:47;2.25;1.00;1.00
75960;PMS7003;64644;48.914;2.254;2024-03-25T12:53:16;2.00;0.75;0.00
75960;PMS7003;64644;48.914;2.254;2024-03-25T12:55:42;1.00;1.00;1.00
75960;PMS7003;64644;48.914;2.254;2024-03-25T12:58:07;2.50;2.00;1.00
75960;PMS7003;64644;48.914;2.254;2024-03-25T13:00:33;1.50;1.50;1.00
75960;PMS7003;64644;48.914;2.254;2024-03-25T13:02:58;1.00;1.00;0.25
75960;PMS7003;64644;48.914;2.254;2024-03-25T13:05:24;1.25;1.25;0.75
75960;PMS7003;64644;48.914;2.254;2024-03-25T13:07:49;2.75;1.50;1.50
75960;PMS7003;64644;48.914;2.254;2024-03-25T13:10:14;1.00;1.00;0.67
75960;PMS7003;64644;48.914;2.254;2024-03-25T13:12:39;2.00;2.00;1.00
75960;PMS7003;64644;48.914;2.254;2024-03-25T13:15:05;1.50;1.00;1.00
75960;PMS7003;64644;48.914;2.254;2024-03-25T13:17:31;3.00;2.75;1.00
75960;PMS7003;64644;48.914;2.254;2024-03-25T13:19:56;1.00;1.00;1.00
75960;PMS7003;64644;48.914;2.254;2024-03-25T13:22:21;2.50;1.00;0.00
75960;PMS7003;64644;48.914;2.254;2024-03-25T13:24:47;1.00;1.00;0.25
75960;PMS7003;64644;48.914;2.254;2024-03-25T13:27:12;3.00;1.00;1.00
75960;PMS7003;64644;48.914;2.254;2024-03-25T13:29:38;1.00;1.00;0.50
75960;PMS7003;64644;48.914;2.254;2024-03-25T13:32:04;1.50;1.00;1.00
75960;PMS7003;64644;48.914;2.254;2024-03-25T13:34:30;1.00;1.00;0.50
75960;PMS7003;64644;48.914;2.254;2024-03-25T13:36:55;1.00;1.00;0.75
75960;PMS7003;64644;48.914;2.254;2024-03-25T13:39:20;0.00;0.00;0.00
75960;PMS7003;64644;48.914;2.254;2024-03-25T13:41:46;1.00;1.00;1.00
75960;PMS7003;64644;48.914;2.254;2024-03-25T13:44:11;0.75;0.75;0.00
75960;PMS7003;64644;48.914;2.254;2024-03-25T13:46:36;1.00;1.00;0.50
75960;PMS7003;64644;48.914;2.254;2024-03-25T13:49:02;0.75;0.75;0.00
75960;PMS7003;64644;48.914;2.254;2024-03-25T13:51:27;0.00;0.00;0.00
75960;PMS7003;64644;48.914;2.254;2024-03-25T13:53:53;1.00;1.00;1.00
75960;PMS7003;64644;48.914;2.254;2024-03-25T13:56:18;1.25;1.00;0.25
75960;PMS7003;64644;48.914;2.254;2024-03-25T13:58:44;0.25;0.25;0.00
75960;PMS7003;64644;48.914;2.254;2024-03-25T14:01:09;1.50;0.75;0.25
75960;PMS7003;64644;48.914;2.254;2024-03-25T14:03:34;3.50;1.00;0.75
75960;PMS7003;64644;48.914;2.254;2024-03-25T14:06:00;1.00;1.00;1.00
75960;PMS7003;64644;48.914;2.254;2024-03-25T14:08:25;1.25;0.00;0.00
75960;PMS7003;64644;48.914;2.254;2024-03-25T14:10:57;0.75;0.75;0.00